[Closed] TS1 ATC @ EGLL

In the process of applying to be an IFATC member.Leave your comments down below.

METAR

EGLL 152020Z VRB03KT 9999 BKN018 09/09 Q1023 TEMPO BKN012

Active Runways

27L
27R

Notams

Sorry. Not too sure what the point is and or what [quote=“Ollie, post:1, topic:91831”]
Leave your comments down below.
[/quote]

means. Can you explain? Thanks :)

How I did in my controlling, or anything I did which you deem good.

1 Like

Apologies, thanks :)

1 Like

Changed to EGLL.

You forgot to update the title to “closed” :)

This topic was automatically closed 90 days after the last reply. New replies are no longer allowed.